Soaring Guidance
Issued by NWS Reno, NV

Home | Current Version | Previous Version | Text Only | Print | Product List | Glossary On
Versions: 1 2 3 4 5 6 7 8 9 10 11 12
865
UXUS97 KREV 061446
SRGREV

SOARING FORECAST
NATIONAL WEATHER SERVICE - RENO NV
700 AM PST SAT FEB 6 2016

THIS SOARING FORECAST IS FOR THE EASTERN SIERRA AND WESTERN NEVADA
WITH SPECIFIC INDICES FOR THE GREATER RENO AREA.

THIS FORECAST IS PREPARED DAILY BY 700 AM AND IS NOT UPDATED.

FOR CURRENT FLIGHT CONDITIONS...FORECASTS...AND ADVISORIES...ACCESS
YOUR LOCAL BRIEFING OUTLET OR FLIGHT SERVICE STATION.

*******************************************************************
FORECASTED LOCAL INDICES FOR RENO:        TODAY     YESTERDAY
FORECASTED MAX TEMP AT RENO (DEG F).....     52          47
FORECASTED TRIGGER TEMPERATURE (DEG F)..     57          50
   EXCEEDED YESTERDAY BY 1055 AM PST
FORECASTED MAXIMUM ALTITUDE (FT MSL)....   6500        7500
FORECASTED SOARING INDEX (FPM)..........    135         195
FORECASTED K-INDEX.........VALID 18Z....     -5           1
FORECASTED K-INDEX.........VALID 00Z....      4           0
FORECASTED LIFTED INDEX....VALID 18Z....     12          14
FORECASTED LIFTED INDEX....VALID 00Z....     13          12

AFTERNOON WINDS ALOFT FORECAST
MSL (FT) WIND/TEMP
9000  3107/+02
10000 3109/+00
12000 3214/-03
14000 3018/-06
16000 3023/-10
18000 3036/-14
24000 3138/-27
30000 3236/-45
34000 3435/-57
39000 3056/-63

SLIDE MOUNTAIN DATA:
     DATE       TIME     TEMP  DEWPT   RH         WIND (MPH)
                        (F)   (F)           | DIR  SPEED GUST
2016-02-06    05:50      30     0     16    | 293   15   20
2016-02-06    05:30      30     0     15    | 294   13   17
2016-02-06    05:20      31     0     12    | 283   12   22
2016-02-06    05:00      30    -1     12    | 296   12   17

RENO TAF FORECAST:
KRNO 061126Z 0612/0712 VRB04KT P6SM SCT200

CARSON CITY TAF FORECAST:
KCXP 061126Z 0612/0712 VRB03KT P6SM BKN200
     FM061900 08009KT P6SM SCT200
     FM070300 VRB03KT P6SM SKC

OUTLOOK FOR THE RENO-CARSON CITY-MINDEN AREA:
.SUNDAY...SUNNY. HIGHS 49 TO 54. LIGHT WINDS BECOMING EAST UP TO
10 MPH IN THE AFTERNOON.

SUNRISE AND SUNSET
FEBRUARY  6 2016......SUNRISE   702 AM PST   SUNSET   525 PM PST
FEBRUARY  7 2016......SUNRISE   701 AM PST   SUNSET   526 PM PST



USA.gov is the U.S. government's official web portal to all federal, state and local government web resources and services.